Latest Weather Observations for Thredbo Top Station

IDN60901

Issued at 3:21 am EDT Saturday 20 December 2014 (issued every 10 minutes, with the page automatically refreshed every 10 minutes)

About weather observations | Map of Canberra area stations | Latest observations for Canberra area | Other Formats
Station Details ID: 071032 Name: THREDBO AWS Lat: -36.49 Lon: 148.29 Height: 1957.0 m
Data from the previous 72 hours. | See also: Recent months at Thredbo Top Station
Date/Time
EDT
Tmp

°C
App
Tmp
°C
Dew
Point
°C
Rel
Hum
%
Delta-T

°C
Wind Press
QNH
hPa
Press
MSL
hPa
Rain
since
9 am
mm
Dir
 
Spd
km/h
Gust
km/h
Spd
kts
Gust
kts
20/03:00am 4.6 -0.9 1.8 82 1.2 WNW 20 30 11 16 1017.8 1015.2 0.0
20/02:30am 4.5 -1.0 1.7 82 1.2 WNW 20 28 11 15 1018.1 1015.6 0.0
20/02:00am 4.6 -0.9 1.8 82 1.2 WNW 20 28 11 15 1018.4 1015.9 0.0
20/01:30am 4.2 0.4 1.6 83 1.1 WNW 11 20 6 11 1018.9 1016.4 0.0
20/01:00am 4.4 1.5 1.4 81 1.3 W 6 13 3 7 1019.1 1016.6 0.0
20/12:30am 3.7 0.7 1.1 83 1.1 NW 6 13 3 7 1019.1 1016.6 0.0
20/12:00am 3.9 0.9 1.1 82 1.2 W 6 11 3 6 1019.2 1016.7 0.0
 
Date/Time
EDT
Tmp

°C
App
Tmp
°C
Dew
Point
°C
Rel
Hum
%
Delta-T

°C
Wind Press
QNH
hPa
Press
MSL
hPa
Rain
since
9 am
mm
Dir
 
Spd
km/h
Gust
km/h
Spd
kts
Gust
kts
19/11:30pm 4.4 1.4 0.9 78 1.5 W 6 11 3 6 1019.4 1016.8 0.0
19/11:00pm 3.9 2.2 1.9 87 0.9 CALM 0 4 0 2 1019.5 1017.0 0.0
19/10:30pm 3.8 2.2 2.2 89 0.7 CALM 0 6 0 3 1019.1 1016.6 0.0
19/10:00pm 4.0 1.9 2.0 87 0.9 E 2 6 1 3 1018.9 1016.4 0.0
19/09:30pm 4.0 1.3 2.4 89 0.7 WNW 6 9 3 5 1018.6 1016.0 0.0
19/09:00pm 4.0 0.0 2.7 91 0.6 WSW 13 17 7 9 1018.6 1016.0 0.0
19/08:30pm 4.3 0.6 2.3 87 0.9 SW 11 13 6 7 1018.2 1015.7 0.0
19/08:00pm 5.6 2.0 3.1 84 1.1 WSW 11 17 6 9 1017.8 1015.2 0.0
19/07:30pm 7.1 2.8 3.0 75 1.9 WSW 15 22 8 12 1017.2 1014.6 0.0
19/07:00pm 7.2 2.7 2.3 71 2.2 W 15 22 8 12 1016.7 1014.1 0.0
19/06:30pm 8.3 4.2 2.3 66 2.7 W 13 22 7 12 1016.2 1013.6 0.0
19/06:00pm 7.9 4.1 1.7 65 2.8 W 11 22 6 12 1016.0 1013.4 0.0
19/05:30pm 8.1 4.0 2.1 66 2.7 WNW 13 22 7 12 1015.7 1013.1 0.0
19/05:00pm 8.6 4.6 3.0 68 2.6 W 13 24 7 13 1015.7 1013.1 0.0
19/04:30pm 8.2 4.1 2.0 65 2.8 WNW 13 20 7 11 1015.6 1013.0 0.0
19/04:00pm 8.6 4.0 1.5 61 3.2 W 15 26 8 14 1015.4 1012.7 0.0
19/03:30pm 9.4 5.7 4.2 70 2.5 W 13 20 7 11 1015.4 1012.7 0.0
19/03:00pm 9.1 5.0 2.0 61 3.2 W 13 24 7 13 1015.1 1012.5 0.0
19/02:30pm 9.2 4.7 2.3 62 3.2 W 15 26 8 14 1015.1 1012.5 0.0
19/02:00pm 9.3 4.8 2.2 61 3.2 WSW 15 26 8 14 1015.2 1012.6 0.0
19/01:30pm 8.1 3.5 1.3 62 3.0 WNW 15 22 8 12 1015.2 1012.6 0.0
19/01:00pm 7.7 3.0 1.1 63 2.9 WSW 15 26 8 14 1015.2 1012.6 0.0
19/12:30pm 7.2 1.5 -0.5 58 3.2 WSW 19 32 10 17 1015.1 1012.5 0.0
19/12:00pm 8.0 3.8 1.4 63 2.9 WNW 13 24 7 13 1014.8 1012.1 0.0
19/11:30am 6.9 1.8 1.0 66 2.6 WNW 17 24 9 13 1014.4 1011.8 0.0
19/11:00am 8.4 4.6 -0.6 53 3.8 E 9 22 5 12 1014.2 1011.6 0.0
19/10:30am 7.1 2.5 1.8 69 2.4 S 15 22 8 12 1014.2 1011.6 0.0
19/10:00am 5.6 1.6 0.4 69 2.2 SSE 11 20 6 11 1014.2 1011.6 0.0
19/09:30am 4.9 0.4 -0.5 68 2.2 SSE 13 22 7 12 1014.4 1011.8 0.0
19/09:00am 5.0 1.8 0.9 75 1.8 SSE 7 19 4 10 1014.3 1011.7 0.0
19/08:30am 3.1 -0.1 -0.2 79 1.3 SSE 6 13 3 7 1014.1 1011.4 0.0
19/08:00am 1.9 -1.7 0.7 92 0.5 S 9 15 5 8 1013.9 1011.2 0.0
19/07:30am 1.1 -2.7 -0.7 88 0.7 S 9 11 5 6 1013.5 1010.9 0.0
19/07:00am 0.5 -3.2 0.2 98 0.1 SSW 9 17 5 9 1013.2 1010.5 0.0
19/06:30am 0.6 -3.4 0.5 99 0.0 SW 11 17 6 9 1012.8 1010.1 0.0
19/06:00am 0.4 -4.1 -0.2 96 0.2 WSW 13 20 7 11 1012.3 1009.6 0.0
19/05:30am 0.8 -5.8 -0.2 93 0.4 WSW 24 30 13 16 1011.8 1009.1 0.0
19/05:00am 1.1 -5.4 0.5 96 0.2 W 24 37 13 20 1011.2 1008.5 0.0
19/04:30am 1.5 -5.3 1.1 97 0.2 W 26 33 14 18 1010.7 1007.9 0.0
19/04:00am 1.5 -6.1 0.8 95 0.3 WNW 30 39 16 21 1010.6 1007.8 0.0
19/03:30am 1.9 -5.4 0.3 89 0.7 WNW 28 39 15 21 1010.4 1007.7 0.0
19/03:00am 2.1 -5.2 -0.2 85 0.9 WNW 28 39 15 21 1010.7 1007.9 0.0
19/02:30am 2.4 -4.4 0.9 90 0.6 W 26 35 14 19 1010.9 1008.1 0.0
19/02:00am 2.7 -4.4 1.2 90 0.6 WNW 28 41 15 22 1011.1 1008.4 0.0
19/01:30am 3.5 -4.0 1.2 85 1.0 WNW 30 44 16 24 1011.1 1008.4 0.0
19/01:21am 3.8 -5.4 1.2 83 1.1 WNW 39 57 21 31 1011.2 1008.5 0.0
19/01:00am 4.0 -5.2 1.0 81 1.3 WNW 39 54 21 29 1011.4 1008.6 0.0
19/12:30am 4.6 -3.9 0.6 75 1.7 WNW 35 54 19 29 1011.5 1008.7 0.0
19/12:25am 4.7 -2.5 0.7 75 1.7 WNW 28 52 15 28 1011.5 1008.7 0.0
19/12:00am 4.6 -1.5 0.4 74 1.8 WNW 22 43 12 23 1011.8 1009.1 0.0
 
Date/Time
EDT
Tmp

°C
App
Tmp
°C
Dew
Point
°C
Rel
Hum
%
Delta-T

°C
Wind Press
QNH
hPa
Press
MSL
hPa
Rain
since
9 am
mm
Dir
 
Spd
km/h
Gust
km/h
Spd
kts
Gust
kts
18/11:30pm 5.0 -0.8 0.0 70 2.1 WNW 20 33 11 18 1011.8 1009.1 0.0
18/11:00pm 5.4 -1.2 -0.2 67 2.3 WNW 24 37 13 20 1012.0 1009.3 0.0
18/10:30pm 6.3 -0.2 0.2 65 2.6 W 24 39 13 21 1011.6 1008.9 0.0
18/10:00pm 6.9 1.4 0.8 65 2.7 W 19 33 10 18 1011.5 1008.7 0.0
18/09:30pm 7.3 1.2 0.7 63 2.9 W 22 35 12 19 1011.1 1008.4 0.0
18/09:00pm 7.7 1.6 0.2 59 3.2 W 22 39 12 21 1010.9 1008.1 0.0
18/08:43pm 8.0 -0.7 -0.5 55 3.6 WNW 35 56 19 30 1010.7 1007.9 0.0
18/08:30pm 8.0 -0.1 -0.5 55 3.6 WNW 32 48 17 26 1010.6 1007.8 0.0
18/08:00pm 8.5 0.7 -0.5 53 3.9 WNW 30 44 16 24 1010.4 1007.7 0.0
18/07:40pm 8.8 1.4 -0.8 51 4.1 WNW 28 50 15 27 1010.3 1007.6 0.0
18/07:30pm 9.1 1.7 -0.8 50 4.2 WNW 28 41 15 22 1010.1 1007.3 0.0
18/07:00pm 9.5 0.7 -1.5 46 4.6 NW 35 61 19 33 1009.9 1007.1 0.0
18/06:30pm 9.6 1.2 -1.1 47 4.6 WNW 33 52 18 28 1009.6 1006.9 0.0
18/06:00pm 10.1 2.7 -1.0 46 4.8 WNW 28 54 15 29 1009.3 1006.5 0.0
18/05:30pm 9.9 1.6 -0.6 48 4.5 WNW 33 52 18 28 1009.2 1006.4 0.0
18/05:00pm 10.5 2.9 0.8 51 4.4 NW 30 48 16 26 1008.8 1006.0 0.0
18/04:30pm 10.9 2.4 0.9 50 4.5 WNW 35 61 19 33 1009.2 1006.4 0.0
18/04:00pm 11.0 3.6 2.1 54 4.1 WNW 30 48 16 26 1009.2 1006.4 0.0
18/03:30pm 10.1 2.0 1.2 54 4.0 WNW 33 52 18 28 1009.5 1006.7 0.0
18/03:04pm 10.5 2.2 2.4 57 3.8 NW 35 54 19 29 1009.3 1006.5 0.0
18/03:00pm 9.9 0.9 2.5 60 3.4 NW 39 54 21 29 1009.4 1006.6 0.0
18/02:32pm 9.8 0.3 1.5 56 3.8 NW 41 63 22 34 1009.3 1006.5 0.0
18/02:30pm 10.9 1.6 3.0 58 3.7 NW 41 57 22 31 1009.3 1006.5 0.0
18/02:00pm 10.8 2.0 3.6 61 3.5 NW 39 61 21 33 1009.5 1006.7 0.0
18/01:40pm 10.4 2.1 2.0 56 3.9 NW 35 57 19 31 1009.5 1006.7 0.0
18/01:30pm 10.2 1.1 1.8 56 3.8 NW 39 56 21 30 1009.5 1006.7 0.0
18/01:01pm 9.7 1.0 1.8 58 3.6 NW 37 56 20 30 1009.4 1006.6 0.0
18/01:00pm 9.6 0.5 1.8 58 3.6 NW 39 56 21 30 1009.5 1006.7 0.0
18/12:33pm 9.6 2.2 1.8 58 3.5 NW 30 48 16 26 1009.6 1006.9 0.0
18/12:30pm 9.5 1.6 1.2 56 3.7 NW 32 48 17 26 1009.5 1006.7 0.0
18/12:00pm 9.9 1.0 0.8 53 4.1 WNW 37 48 20 26 1009.6 1006.9 0.0
18/11:44am 10.5 2.0 0.8 51 4.3 WNW 35 54 19 29 1009.5 1006.7 0.0
18/11:30am 9.5 0.7 -0.9 48 4.4 NW 35 50 19 27 1009.5 1006.7 0.0
18/11:00am 9.2 -0.3 -0.7 50 4.2 WNW 39 54 21 29 1009.6 1006.9 0.0
18/10:30am 8.8 -1.6 -1.9 47 4.4 NW 43 56 23 30 1009.9 1007.1 0.0
18/10:00am 8.9 -2.0 -0.9 50 4.2 NW 46 65 25 35 1009.8 1007.0 0.0
18/09:36am 7.8 -3.2 -2.2 49 4.1 NW 46 65 25 35 1009.6 1006.9 0.0
18/09:30am 8.3 -3.0 -1.2 51 4.0 NW 48 65 26 35 1009.6 1006.9 0.0
18/09:00am 7.7 -4.8 -2.0 50 4.0 NW 54 69 29 37 1009.3 1006.5 0.0
18/08:30am 7.4 -4.4 -2.6 49 4.0 NW 50 67 27 36 1009.3 1006.5 0.0
18/08:19am 7.1 -4.4 -3.1 48 4.0 NW 48 67 26 36 1009.3 1006.5 0.0
18/08:00am 6.6 -5.3 -3.1 50 3.8 NW 50 67 27 36 1009.3 1006.5 0.0
18/07:30am 6.2 -6.1 -3.2 51 3.7 NW 52 70 28 38 1009.4 1006.6 0.0
18/07:00am 5.5 -6.8 -3.3 53 3.4 NW 52 70 28 38 1008.8 1006.0 0.0
18/06:34am 4.5 -7.5 -4.0 54 3.2 NW 50 69 27 37 1008.7 1005.9 0.0
18/06:30am 4.5 -8.3 -4.0 54 3.2 NW 54 70 29 38 1008.7 1005.9 0.0
18/06:00am 4.9 -8.4 -4.1 52 3.4 NW 57 70 31 38 1008.3 1005.4 0.0
18/05:30am 4.9 -8.8 -4.1 52 3.4 NW 59 70 32 38 1008.2 1005.3 0.0
18/05:00am 4.9 -6.7 -3.6 54 3.3 NW 48 61 26 33 1008.4 1005.6 0.0
18/04:33am 5.1 -5.5 -3.4 54 3.3 NW 43 61 23 33 1008.4 1005.6 0.0
18/04:30am 5.0 -5.6 -3.5 54 3.3 NW 43 56 23 30 1008.4 1005.6 0.0
18/04:14am 5.0 -5.2 -3.5 54 3.3 NW 41 59 22 32 1008.4 1005.6 0.0
18/04:00am 5.1 -5.1 -3.4 54 3.3 NW 41 54 22 29 1008.4 1005.6 0.0
18/03:30am 5.2 -5.4 -3.3 54 3.3 NW 43 56 23 30 1008.6 1005.8 0.0
18/03:00am 5.2 -4.6 -3.1 55 3.2 NW 39 48 21 26 1008.6 1005.8 0.0
18/02:30am 5.3 -3.8 -3.2 54 3.3 NW 35 46 19 25 1009.1 1006.3 0.0
18/02:00am 5.7 -2.5 -3.6 51 3.6 NW 30 39 16 21 1009.4 1006.6 0.0
18/01:30am 6.4 -3.2 -4.6 45 4.2 NW 37 48 20 26 1009.6 1006.9 0.0
18/01:00am 6.4 -1.4 -4.1 47 4.0 NW 28 44 15 24 1009.9 1007.1 0.0
18/12:30am 6.5 -1.7 -4.0 47 4.0 NNW 30 41 16 22 1010.2 1007.4 0.0
18/12:00am 6.3 -0.4 -3.9 48 3.9 NNW 22 33 12 18 1010.6 1007.8 0.0
 
Date/Time
EDT
Tmp

°C
App
Tmp
°C
Dew
Point
°C
Rel
Hum
%
Delta-T

°C
Wind Press
QNH
hPa
Press
MSL
hPa
Rain
since
9 am
mm
Dir
 
Spd
km/h
Gust
km/h
Spd
kts
Gust
kts
17/11:30pm 6.8 -0.3 -4.3 45 4.3 NNW 24 32 13 17 1010.7 1007.9 0.0
17/11:00pm 7.0 0.7 -3.8 46 4.2 NNW 20 28 11 15 1010.8 1008.0 0.0
17/10:30pm 6.4 2.0 -2.7 52 3.6 NW 11 19 6 10 1011.0 1008.3 0.0
17/10:00pm 6.7 1.7 -1.4 56 3.3 NW 15 22 8 12 1011.0 1008.3 0.0
17/09:30pm 6.6 2.9 -0.1 62 2.8 NNE 9 15 5 8 1010.6 1007.8 0.0
17/09:00pm 6.9 3.8 3.7 80 1.5 WSW 9 15 5 8 1010.4 1007.7 0.0
17/08:30pm 7.7 4.3 -0.8 55 3.6 N 7 17 4 9 1010.3 1007.6 0.0
17/08:00pm 8.4 4.2 -0.6 53 3.8 NNW 11 17 6 9 1010.0 1007.2 0.0
17/07:30pm 9.9 4.5 -1.2 46 4.7 NNW 17 24 9 13 1009.4 1006.6 0.0
17/07:00pm 11.2 6.6 -1.2 42 5.4 NNW 13 19 7 10 1009.2 1006.4 0.0
17/06:30pm 11.9 7.1 -2.3 37 6.0 N 13 22 7 12 1008.7 1005.9 0.0
17/06:00pm 13.0 10.3 3.7 53 4.5 E 7 15 4 8 1008.3 1005.4 0.0
17/05:30pm 13.8 9.7 2.1 45 5.5 NNE 13 20 7 11 1008.2 1005.3 0.0
17/05:00pm 12.9 8.7 -7.7 23 7.8 NNE 7 19 4 10 1008.5 1005.7 0.0
17/04:30pm 12.3 5.5 -4.8 30 6.9 NNW 22 30 12 16 1008.6 1005.8 0.0
17/04:00pm 12.7 6.5 -3.5 32 6.8 NNW 20 26 11 14 1008.5 1005.7 0.0
17/03:30pm 12.7 6.2 -2.7 34 6.5 NNW 22 35 12 19 1008.3 1005.4 0.0
17/03:00pm 13.0 6.2 0.7 43 5.6 NW 26 35 14 19 1008.3 1005.4 0.0
17/02:30pm 12.7 6.9 0.1 42 5.7 N 20 33 11 18 1008.2 1005.3 0.0
17/02:00pm 12.7 7.6 0.8 44 5.5 WNW 17 30 9 16 1008.2 1005.3 0.0
17/01:30pm 12.3 6.7 0.1 43 5.5 W 19 30 10 16 1008.3 1005.4 0.0
17/01:00pm 12.8 8.7 -0.1 41 5.8 WNW 11 22 6 12 1008.3 1005.4 0.0
17/12:30pm 11.1 6.1 -1.0 43 5.2 WNW 15 22 8 12 1008.4 1005.6 0.0
17/12:00pm 11.1 6.9 -0.7 44 5.2 W 11 22 6 12 1008.2 1005.3 0.0
17/11:30am 11.4 6.7 -2.0 39 5.7 S 13 26 7 14 1008.0 1005.2 0.0
17/11:00am 9.6 5.8 -0.9 48 4.5 SSE 9 17 5 9 1007.9 1005.1 0.0
17/10:30am 9.9 7.4 3.9 66 2.9 ESE 6 24 3 13 1007.9 1005.1 0.0
17/10:00am 8.1 5.5 3.2 71 2.3 SSE 6 17 3 9 1007.7 1004.9 0.0
17/09:30am 8.0 5.7 4.8 80 1.5 ESE 6 13 3 7 1007.5 1004.6 0.0
17/09:00am 6.2 3.5 3.5 83 1.2 ESE 7 13 4 7 1007.6 1004.7 0.0
17/08:30am 4.9 2.6 2.9 87 0.9 E 4 9 2 5 1007.5 1004.6 0.0
17/08:00am 3.4 1.1 2.7 95 0.3 E 4 6 2 3 1007.2 1004.4 0.0
17/07:30am 3.1 0.8 2.8 98 0.1 SE 4 6 2 3 1006.9 1004.0 0.0
17/07:00am 3.0 0.4 1.2 88 0.8 E 4 7 2 4 1006.4 1003.6 0.0
17/06:30am 3.0 -1.3 -1.7 71 1.8 NNW 11 19 6 10 1005.6 1002.7 0.0
17/06:00am 2.6 -4.0 -0.7 79 1.3 NW 24 33 13 18 1005.0 1002.0 0.0
17/05:30am 2.8 -6.2 0.0 82 1.1 NW 37 46 20 25 1004.3 1001.3 0.0
17/05:00am 4.3 -6.4 -4.4 53 3.3 NW 43 52 23 28 1003.7 1000.7 0.0
17/04:30am 3.4 -6.0 -0.1 78 1.4 NW 39 50 21 27 1003.1 1000.1 0.0
17/04:00am 5.0 -7.8 -4.5 50 3.6 NW 54 67 29 36 1003.0 1000.0 0.0
17/03:30am 5.5 -8.8 -6.1 43 4.2 NW 61 72 33 39 1002.6 999.6 0.0

Latest Capital City Observations: Canberra | Sydney | Melbourne | Brisbane | Adelaide | Perth | Hobart | Darwin

Other Formats:

Comma delimited format used in spreadsheet applications
http://www.bom.gov.au/fwo/IDN60903/IDN60903.95909.axf

JavaScript Object Notation format (JSON) in row-major order
http://www.bom.gov.au/fwo/IDN60903/IDN60903.95909.json